Time;durP1;ratioP1;P1;durP2;ratioP2;P2;SDS_P1;SDS_P2;PMS_P1;PMS_P2;Temp;Humidity;BMP_temperature;BMP_pressure;BME280_temperature;BME280_humidity;BME280_pressure;Samples;Min_cycle;Max_cycle;Signal;HPM_P1;HPM_P2
2021/11/26 00:00:35;;;;;;;0.63;0.40;;;8.40;90.50;;;;;;5032640;28;20481;-84
2021/11/26 00:03:01;;;;;;;5.15;0.57;;;8.40;90.20;;;;;;5030192;28;20393;-83
2021/11/26 00:05:27;;;;;;;1.45;0.88;;;8.30;90.10;;;;;;5028298;28;20044;-84
2021/11/26 00:07:52;;;;;;;0.73;0.73;;;8.30;90.10;;;;;;5031098;28;20033;-85
2021/11/26 00:10:19;;;;;;;0.20;0.20;;;8.20;90.10;;;;;;5030530;28;20014;-85
2021/11/26 00:12:52;;;;;;;0.65;0.47;;;8.20;90.10;;;;;;5023336;28;20099;-85
2021/11/26 00:17:52;;;;;;;0.63;0.60;;;8.20;90.10;;;;;;5032335;28;20041;-84
2021/11/26 00:20:18;;;;;;;0.40;0.40;;;8.20;90.20;;;;;;5021686;28;20038;-84
2021/11/26 00:22:44;;;;;;;2.40;0.93;;;8.10;90.20;;;;;;5031102;28;20044;-84
2021/11/26 00:25:10;;;;;;;2.00;0.82;;;8.10;90.20;;;;;;5030776;28;20064;-83
2021/11/26 00:27:36;;;;;;;1.35;0.82;;;8.10;90.30;;;;;;5021034;28;20081;-85
2021/11/26 00:30:03;;;;;;;1.77;0.75;;;8.20;90.30;;;;;;5033219;28;20072;-85
2021/11/26 00:32:28;;;;;;;2.85;0.90;;;8.10;90.30;;;;;;5027472;28;20034;-84
2021/11/26 00:34:54;;;;;;;2.58;0.98;;;8.20;90.30;;;;;;5014968;28;20026;-84
2021/11/26 00:37:20;;;;;;;5.32;1.20;;;8.20;90.30;;;;;;5014861;28;20041;-83
2021/11/26 00:39:45;;;;;;;2.83;0.73;;;8.20;90.20;;;;;;5014504;28;20030;-85
2021/11/26 00:42:11;;;;;;;0.50;0.50;;;8.10;90.20;;;;;;5014196;28;20189;-83
2021/11/26 00:44:37;;;;;;;2.85;0.82;;;8.20;90.30;;;;;;5029609;28;20097;-83
2021/11/26 00:47:02;;;;;;;1.73;0.93;;;8.20;90.30;;;;;;5030428;28;20057;-85
2021/11/26 00:49:28;;;;;;;2.30;0.88;;;8.20;90.30;;;;;;5030350;28;20037;-83
2021/11/26 00:51:53;;;;;;;6.40;1.08;;;8.20;90.30;;;;;;5030679;28;20033;-86
2021/11/26 00:54:19;;;;;;;2.28;1.10;;;8.10;90.30;;;;;;5036081;28;20024;-84
2021/11/26 00:56:45;;;;;;;3.58;1.30;;;8.20;90.30;;;;;;5030598;28;20045;-85
2021/11/26 00:59:13;;;;;;;1.67;0.80;;;8.20;90.30;;;;;;5024295;28;20114;-82
2021/11/26 01:01:39;;;;;;;4.70;0.82;;;8.20;90.30;;;;;;5025619;28;20147;-81
2021/11/26 01:04:04;;;;;;;1.15;0.63;;;8.20;90.30;;;;;;5027600;28;20030;-81
2021/11/26 01:06:32;;;;;;;1.92;0.80;;;8.20;90.30;;;;;;5025460;28;20030;-82
2021/11/26 01:08:58;;;;;;;2.00;0.57;;;8.20;90.30;;;;;;5030610;28;20033;-82
2021/11/26 01:11:23;;;;;;;0.43;0.43;;;8.10;90.30;;;;;;5029705;28;20025;-80
2021/11/26 01:13:49;;;;;;;3.58;0.90;;;8.10;90.30;;;;;;5030176;28;20021;-82
2021/11/26 01:16:16;;;;;;;1.73;0.73;;;8.10;90.60;;;;;;5032305;28;20448;-83
2021/11/26 01:18:41;;;;;;;0.55;0.55;;;8.10;90.30;;;;;;5030459;28;20061;-83
2021/11/26 01:21:07;;;;;;;2.58;0.95;;;8.10;90.30;;;;;;5030356;28;20071;-83
2021/11/26 01:23:35;;;;;;;6.68;1.33;;;8.10;90.40;;;;;;5022772;28;20132;-82
2021/11/26 01:26:01;;;;;;;2.08;0.63;;;8.10;90.40;;;;;;5041854;28;20055;-81
2021/11/26 01:28:27;;;;;;;3.22;1.27;;;8.10;90.40;;;;;;5043484;28;20033;-82
2021/11/26 01:30:53;;;;;;;3.00;1.05;;;8.10;90.40;;;;;;5031478;28;20025;-83
2021/11/26 01:33:20;;;;;;;0.60;0.60;;;8.20;90.70;;;;;;5030477;28;20038;-83
2021/11/26 01:35:50;;;;;;;3.08;1.17;;;8.20;90.40;;;;;;5028186;28;20464;-83
2021/11/26 01:38:15;;;;;;;1.48;0.95;;;8.20;90.30;;;;;;5025475;28;20034;-82
2021/11/26 01:40:42;;;;;;;1.27;0.45;;;8.20;90.30;;;;;;5017394;28;20076;-82
2021/11/26 01:43:10;;;;;;;3.47;1.02;;;8.20;90.30;;;;;;5030286;28;20069;-82
2021/11/26 01:45:48;;;;;;;3.03;1.10;;;8.10;90.30;;;;;;5028928;28;20209;-82
2021/11/26 01:48:15;;;;;;;2.63;0.70;;;8.10;90.30;;;;;;5019226;28;20029;-84
2021/11/26 01:50:41;;;;;;;1.33;0.73;;;8.10;90.30;;;;;;5015381;28;20468;-82
2021/11/26 01:53:07;;;;;;;1.65;1.20;;;8.10;90.30;;;;;;5024485;28;20061;-82
2021/11/26 01:55:34;;;;;;;2.63;1.17;;;8.10;90.30;;;;;;5022632;28;20497;-83
2021/11/26 01:58:00;;;;;;;1.40;0.90;;;8.10;90.40;;;;;;5023820;28;20021;-83
2021/11/26 02:00:33;;;;;;;0.95;0.85;;;8.00;90.40;;;;;;5029027;28;20032;-83
2021/11/26 02:02:59;;;;;;;1.00;0.87;;;7.90;90.60;;;;;;5030672;28;20059;-81
2021/11/26 02:05:25;;;;;;;4.30;0.88;;;7.80;90.70;;;;;;5028686;28;20260;-82
2021/11/26 02:07:51;;;;;;;0.50;0.50;;;7.80;90.90;;;;;;5031530;28;20557;-82
2021/11/26 02:10:17;;;;;;;1.27;0.98;;;7.80;91.00;;;;;;5029808;28;20116;-83
2021/11/26 02:12:43;;;;;;;1.33;0.95;;;7.70;91.10;;;;;;5028476;28;20037;-82
2021/11/26 02:15:09;;;;;;;0.40;0.40;;;7.70;91.20;;;;;;5021221;28;20493;-83
2021/11/26 02:17:35;;;;;;;1.05;0.82;;;7.70;91.20;;;;;;5029266;28;20401;-82
2021/11/26 02:20:02;;;;;;;0.38;0.38;;;7.70;91.30;;;;;;5028938;28;20116;-82
2021/11/26 02:22:28;;;;;;;0.80;0.80;;;7.60;91.30;;;;;;5024620;28;20069;-83
2021/11/26 02:24:54;;;;;;;2.55;0.77;;;7.70;91.30;;;;;;5016211;28;20377;-83
2021/11/26 02:27:20;;;;;;;0.35;0.32;;;7.70;91.30;;;;;;5017702;28;20087;-84
2021/11/26 02:29:55;;;;;;;0.40;0.40;;;7.70;91.30;;;;;;5023268;28;20084;-83
2021/11/26 02:32:24;;;;;;;2.38;0.75;;;7.80;91.20;;;;;;5032812;28;20032;-82
2021/11/26 02:34:52;;;;;;;4.13;0.68;;;7.80;91.10;;;;;;5018676;28;20473;-82
2021/11/26 02:37:18;;;;;;;6.65;0.80;;;7.90;91.10;;;;;;5015010;28;20107;-82
2021/11/26 02:39:44;;;;;;;1.17;0.55;;;7.90;91.10;;;;;;5017023;28;20536;-83
2021/11/26 02:42:09;;;;;;;1.00;0.75;;;7.90;91.00;;;;;;5031304;28;20493;-83
2021/11/26 02:44:35;;;;;;;2.28;0.63;;;8.00;91.00;;;;;;5029139;28;20021;-82
2021/11/26 02:47:01;;;;;;;0.57;0.57;;;8.00;90.90;;;;;;5029916;28;20180;-83
2021/11/26 02:49:26;;;;;;;1.45;0.98;;;8.00;90.80;;;;;;5027888;28;20034;-83
2021/11/26 02:51:52;;;;;;;0.35;0.35;;;8.00;90.70;;;;;;5029019;28;20041;-84
2021/11/26 02:54:17;;;;;;;0.73;0.73;;;8.00;90.70;;;;;;5031275;28;20040;-84
2021/11/26 02:56:43;;;;;;;1.98;0.57;;;8.00;90.60;;;;;;5029547;28;20041;-83
2021/11/26 02:59:09;;;;;;;0.63;0.40;;;8.00;90.60;;;;;;5034122;28;20032;-85
2021/11/26 03:01:34;;;;;;;7.03;1.20;;;8.00;90.60;;;;;;5031267;28;20037;-83
2021/11/26 03:04:00;;;;;;;6.75;2.25;;;8.00;90.70;;;;;;5030848;28;20034;-83
2021/11/26 03:06:25;;;;;;;0.20;0.20;;;8.00;90.70;;;;;;5031626;28;20025;-84
2021/11/26 03:08:51;;;;;;;0.85;0.75;;;7.90;90.70;;;;;;5034153;28;20033;-83
2021/11/26 03:11:17;;;;;;;0.30;0.30;;;7.90;90.70;;;;;;5033748;28;20057;-84
2021/11/26 03:13:43;;;;;;;2.10;0.60;;;7.90;90.70;;;;;;5031657;28;20035;-84
2021/11/26 03:16:08;;;;;;;0.57;0.57;;;7.90;90.70;;;;;;5031869;28;20032;-84
2021/11/26 03:18:36;;;;;;;1.58;0.60;;;7.90;90.80;;;;;;5029543;28;20033;-82
2021/11/26 03:21:02;;;;;;;1.23;0.50;;;7.90;90.80;;;;;;5031075;28;20030;-83
2021/11/26 03:23:27;;;;;;;2.75;0.55;;;7.80;90.80;;;;;;5033480;28;20477;-83
2021/11/26 03:25:53;;;;;;;1.73;1.60;;;7.80;90.80;;;;;;5027789;28;20029;-83
2021/11/26 03:28:19;;;;;;;5.70;0.70;;;7.80;90.80;;;;;;5031799;28;20025;-82
2021/11/26 03:30:44;;;;;;;4.53;0.73;;;7.80;90.90;;;;;;5020256;28;20034;-81
2021/11/26 03:33:10;;;;;;;4.47;0.70;;;7.70;90.80;;;;;;5035039;28;20036;-81
2021/11/26 03:35:36;;;;;;;1.05;0.60;;;7.80;90.80;;;;;;5026886;28;20022;-82
2021/11/26 03:38:02;;;;;;;0.60;0.60;;;7.70;90.80;;;;;;5028409;28;20026;-82
2021/11/26 03:40:28;;;;;;;2.17;1.15;;;7.70;90.90;;;;;;5028533;28;20096;-81
2021/11/26 03:42:56;;;;;;;1.75;0.80;;;7.70;91.00;;;;;;5021469;28;20128;-81
2021/11/26 03:45:24;;;;;;;1.75;0.73;;;7.60;91.00;;;;;;5026426;28;20026;-82
2021/11/26 03:47:50;;;;;;;0.93;0.50;;;7.60;91.00;;;;;;5024534;28;20036;-83
2021/11/26 03:50:16;;;;;;;1.45;0.75;;;7.60;91.10;;;;;;5023740;28;20034;-84
2021/11/26 03:52:42;;;;;;;0.30;0.30;;;7.60;91.10;;;;;;5031767;28;20508;-82
2021/11/26 03:55:12;;;;;;;1.00;0.70;;;7.50;91.10;;;;;;5033321;28;20037;-83
2021/11/26 03:57:39;;;;;;;0.30;0.30;;;7.50;91.20;;;;;;5030328;28;20033;-82
2021/11/26 04:00:06;;;;;;;0.35;0.35;;;7.50;91.30;;;;;;5022212;28;20104;-82
2021/11/26 04:02:37;;;;;;;0.20;0.20;;;7.50;91.30;;;;;;5032097;28;20897;-81
2021/11/26 04:05:04;;;;;;;0.52;0.52;;;7.50;91.30;;;;;;5032075;28;20029;-83
2021/11/26 04:07:30;;;;;;;0.40;0.40;;;7.50;91.30;;;;;;5032713;28;20079;-83
2021/11/26 04:09:56;;;;;;;0.40;0.40;;;7.50;91.30;;;;;;5030345;28;20034;-83
2021/11/26 04:12:22;;;;;;;0.30;0.30;;;7.50;91.30;;;;;;5022970;28;20037;-84
2021/11/26 04:14:53;;;;;;;0.25;0.25;;;7.60;91.30;;;;;;5019623;28;20040;-83
2021/11/26 04:17:19;;;;;;;0.40;0.40;;;7.60;91.30;;;;;;5033404;28;20045;-83
2021/11/26 04:19:45;;;;;;;0.40;0.40;;;7.60;91.20;;;;;;5031222;28;20033;-81
2021/11/26 04:22:11;;;;;;;0.85;0.70;;;7.60;91.20;;;;;;5021060;28;20049;-82
2021/11/26 04:24:36;;;;;;;0.43;0.43;;;7.60;91.20;;;;;;5033043;28;20030;-82
2021/11/26 04:27:02;;;;;;;1.77;0.70;;;7.60;91.20;;;;;;5030447;28;20041;-83
2021/11/26 04:29:28;;;;;;;1.00;0.52;;;7.60;91.10;;;;;;5033432;28;20040;-83
2021/11/26 04:31:54;;;;;;;1.13;0.50;;;7.60;91.10;;;;;;5029369;28;20029;-85
2021/11/26 04:34:20;;;;;;;0.52;0.50;;;7.70;91.00;;;;;;5028932;28;20105;-80
2021/11/26 04:36:45;;;;;;;0.40;0.40;;;7.70;91.00;;;;;;5027655;28;20473;-82
2021/11/26 04:39:11;;;;;;;0.82;0.70;;;7.70;90.90;;;;;;5026558;28;20029;-83
2021/11/26 04:41:37;;;;;;;0.63;0.40;;;7.70;90.90;;;;;;5031970;28;20140;-82
2021/11/26 04:44:03;;;;;;;0.50;0.50;;;7.70;90.90;;;;;;5031683;28;20041;-83
2021/11/26 04:46:28;;;;;;;1.88;0.73;;;7.70;90.90;;;;;;5017739;28;20083;-81
2021/11/26 04:48:54;;;;;;;0.63;0.50;;;7.60;90.90;;;;;;5019635;28;20033;-78
2021/11/26 04:51:20;;;;;;;3.20;0.85;;;7.60;90.90;;;;;;5030466;28;20128;-81
2021/11/26 04:53:46;;;;;;;0.30;0.30;;;7.60;90.90;;;;;;5031690;28;20037;-78
2021/11/26 04:56:11;;;;;;;0.70;0.55;;;7.60;91.00;;;;;;5025426;28;20030;-85
2021/11/26 04:58:37;;;;;;;0.63;0.40;;;7.60;91.00;;;;;;5033081;28;20033;-87
2021/11/26 05:01:04;;;;;;;0.30;0.30;;;7.60;91.00;;;;;;5029699;28;20033;-85
2021/11/26 05:03:31;;;;;;;0.68;0.68;;;7.60;91.00;;;;;;5028167;28;20033;-83
2021/11/26 05:05:58;;;;;;;0.98;0.40;;;7.60;91.00;;;;;;5032142;28;20120;-85
2021/11/26 05:08:23;;;;;;;0.50;0.50;;;7.60;91.00;;;;;;5030150;28;20026;-87
2021/11/26 05:10:52;;;;;;;0.28;0.28;;;7.50;90.90;;;;;;5029653;28;20025;-85
2021/11/26 05:13:24;;;;;;;0.30;0.30;;;7.50;90.90;;;;;;5026103;28;20033;-84
2021/11/26 05:15:50;;;;;;;3.35;0.73;;;7.50;91.00;;;;;;5028917;28;20026;-84
2021/11/26 05:18:16;;;;;;;1.90;0.60;;;7.50;91.00;;;;;;5021031;28;20029;-83
2021/11/26 05:20:42;;;;;;;0.20;0.20;;;7.50;91.30;;;;;;5030398;28;20378;-85
2021/11/26 05:23:09;;;;;;;0.38;0.38;;;7.50;91.00;;;;;;5031327;28;20049;-84
2021/11/26 05:25:35;;;;;;;0.20;0.20;;;7.50;91.00;;;;;;5031751;28;20104;-85
2021/11/26 05:28:01;;;;;;;0.40;0.40;;;7.50;91.00;;;;;;5031117;28;20061;-84
2021/11/26 05:30:27;;;;;;;4.60;1.00;;;7.50;91.00;;;;;;5026218;28;20030;-84
2021/11/26 05:32:53;;;;;;;0.50;0.50;;;7.50;90.90;;;;;;5032790;28;20029;-84
2021/11/26 05:35:20;;;;;;;0.60;0.60;;;7.50;91.00;;;;;;5018464;28;20034;-83
2021/11/26 05:37:47;;;;;;;0.40;0.40;;;7.50;91.00;;;;;;5033122;28;20033;-75
2021/11/26 05:40:15;;;;;;;0.88;0.55;;;7.50;90.90;;;;;;5028831;28;20079;-74
2021/11/26 05:42:41;;;;;;;0.70;0.50;;;7.50;90.90;;;;;;5029542;28;20041;-75
2021/11/26 05:45:09;;;;;;;0.40;0.40;;;7.40;90.90;;;;;;5029931;28;20030;-77
2021/11/26 05:47:34;;;;;;;0.40;0.40;;;7.50;90.90;;;;;;5026546;28;20350;-84
2021/11/26 05:50:02;;;;;;;0.47;0.47;;;7.50;90.90;;;;;;5030747;28;20021;-82
2021/11/26 05:52:27;;;;;;;0.50;0.50;;;7.50;90.90;;;;;;5025945;28;20040;-82
2021/11/26 05:54:53;;;;;;;1.90;1.27;;;7.40;90.90;;;;;;5030393;28;20112;-84
2021/11/26 05:57:19;;;;;;;0.30;0.30;;;7.40;90.90;;;;;;5028140;28;20528;-84
2021/11/26 05:59:44;;;;;;;0.40;0.40;;;7.40;91.00;;;;;;5032002;28;20069;-86
2021/11/26 06:02:10;;;;;;;0.47;0.40;;;7.40;91.10;;;;;;5028836;28;20073;-86
2021/11/26 06:04:36;;;;;;;2.17;1.00;;;7.30;91.10;;;;;;5029741;28;20143;-83
2021/11/26 06:07:01;;;;;;;1.58;0.77;;;7.30;91.10;;;;;;5031722;28;20457;-85
2021/11/26 06:09:27;;;;;;;1.25;0.50;;;7.30;91.10;;;;;;5028003;28;20033;-80
2021/11/26 06:11:53;;;;;;;1.30;0.73;;;7.30;91.20;;;;;;5022032;28;20406;-85
2021/11/26 06:14:18;;;;;;;0.55;0.55;;;7.30;91.20;;;;;;5026043;28;20056;-84
2021/11/26 06:16:44;;;;;;;4.55;0.77;;;7.20;91.30;;;;;;5024054;28;20021;-86
2021/11/26 06:19:09;;;;;;;0.40;0.40;;;7.30;91.30;;;;;;5025419;28;20036;-81
2021/11/26 06:21:35;;;;;;;0.35;0.35;;;7.20;91.30;;;;;;5030812;28;20024;-84
2021/11/26 06:24:01;;;;;;;0.90;0.88;;;7.20;91.30;;;;;;5033395;28;20037;-88
2021/11/26 06:26:27;;;;;;;0.77;0.43;;;7.20;91.30;;;;;;5020092;28;20056;-81
2021/11/26 06:28:53;;;;;;;0.43;0.43;;;7.20;91.30;;;;;;5028911;28;20119;-89
2021/11/26 06:31:18;;;;;;;1.27;0.63;;;7.20;91.30;;;;;;5029203;28;20121;-84
2021/11/26 06:33:44;;;;;;;0.82;0.60;;;7.30;91.30;;;;;;5032916;28;20034;-79
2021/11/26 06:36:10;;;;;;;1.77;0.65;;;7.20;91.30;;;;;;5033759;28;20072;-85
2021/11/26 06:38:36;;;;;;;0.57;0.57;;;7.20;91.30;;;;;;5035931;28;20375;-87
2021/11/26 06:41:02;;;;;;;1.65;0.70;;;7.20;91.30;;;;;;5034974;28;20073;-77
2021/11/26 06:43:28;;;;;;;0.40;0.40;;;7.20;91.30;;;;;;5022893;28;20216;-78
2021/11/26 06:45:54;;;;;;;0.95;0.52;;;7.30;91.30;;;;;;5025543;28;20075;-83
2021/11/26 06:48:20;;;;;;;1.00;0.77;;;7.20;91.20;;;;;;5031612;28;20469;-83
2021/11/26 06:50:46;;;;;;;0.50;0.50;;;7.30;91.20;;;;;;5029491;28;20034;-84
2021/11/26 06:53:12;;;;;;;0.73;0.40;;;7.30;91.20;;;;;;5023886;28;20036;-83
2021/11/26 06:55:37;;;;;;;0.68;0.68;;;7.20;91.10;;;;;;5034592;28;20709;-83
2021/11/26 06:58:03;;;;;;;0.40;0.40;;;7.30;91.10;;;;;;5028655;28;20033;-83
2021/11/26 07:00:29;;;;;;;0.65;0.52;;;7.30;91.10;;;;;;5028831;28;20025;-84
2021/11/26 07:02:55;;;;;;;0.52;0.52;;;7.30;91.10;;;;;;5031605;28;20037;-85
2021/11/26 07:05:21;;;;;;;3.83;1.90;;;7.30;91.10;;;;;;5026854;28;20105;-83
2021/11/26 07:07:47;;;;;;;1.90;0.63;;;7.30;91.00;;;;;;5031746;28;20029;-83
2021/11/26 07:10:13;;;;;;;2.05;0.80;;;7.30;91.10;;;;;;5019057;28;20487;-83
2021/11/26 07:12:40;;;;;;;1.88;0.80;;;7.30;91.30;;;;;;5033556;28;20053;-83
2021/11/26 07:15:08;;;;;;;1.35;1.23;;;7.40;91.00;;;;;;5027741;28;20034;-81
2021/11/26 07:17:34;;;;;;;2.10;0.52;;;7.40;90.90;;;;;;5029697;28;20029;-82
2021/11/26 07:20:00;;;;;;;0.40;0.40;;;7.30;90.90;;;;;;5020364;28;20022;-80
2021/11/26 07:22:26;;;;;;;0.47;0.47;;;7.40;90.90;;;;;;5032281;28;20034;-82
2021/11/26 07:24:52;;;;;;;0.30;0.30;;;7.40;90.90;;;;;;5033119;28;20036;-80
2021/11/26 07:27:18;;;;;;;4.97;1.08;;;7.30;90.80;;;;;;5034278;28;20468;-75
2021/11/26 07:29:43;;;;;;;0.57;0.50;;;7.30;91.10;;;;;;5033604;28;20030;-78
2021/11/26 07:32:10;;;;;;;3.05;0.80;;;7.30;90.70;;;;;;5033493;28;20025;-79
2021/11/26 07:34:35;;;;;;;0.50;0.50;;;7.30;90.70;;;;;;5033636;28;20084;-77
2021/11/26 07:37:01;;;;;;;3.42;0.85;;;7.30;90.80;;;;;;5033081;28;20033;-84
2021/11/26 07:39:33;;;;;;;0.60;0.60;;;7.30;90.70;;;;;;5034857;28;20056;-83
2021/11/26 07:42:02;;;;;;;3.63;1.27;;;7.30;90.70;;;;;;5020568;28;20091;-84
2021/11/26 07:44:28;;;;;;;6.72;1.83;;;7.30;90.70;;;;;;5033722;28;20163;-84
2021/11/26 07:46:54;;;;;;;4.30;1.17;;;7.30;90.70;;;;;;5033744;28;20130;-85
2021/11/26 07:49:20;;;;;;;4.70;1.42;;;7.30;90.80;;;;;;5029589;28;20026;-86
2021/11/26 07:51:45;;;;;;;3.42;0.90;;;7.30;90.80;;;;;;5024294;28;20040;-86
2021/11/26 07:54:11;;;;;;;5.75;1.60;;;7.30;90.80;;;;;;5031879;28;20036;-84
2021/11/26 07:56:37;;;;;;;2.95;0.98;;;7.20;90.70;;;;;;5023733;28;20116;-85
2021/11/26 07:59:03;;;;;;;3.97;1.10;;;7.30;90.80;;;;;;5033187;28;20113;-85
2021/11/26 08:01:28;;;;;;;0.98;0.75;;;7.30;90.70;;;;;;5033463;28;20467;-86
2021/11/26 08:03:54;;;;;;;5.65;1.35;;;7.30;90.70;;;;;;5023016;28;20125;-84
2021/11/26 08:06:19;;;;;;;1.92;1.25;;;7.30;90.70;;;;;;5027228;28;20028;-85
2021/11/26 08:08:45;;;;;;;1.10;0.80;;;7.30;91.00;;;;;;5024471;28;20030;-85
2021/11/26 08:11:11;;;;;;;1.25;0.90;;;7.30;90.70;;;;;;5032341;28;20026;-86
2021/11/26 08:13:36;;;;;;;1.98;1.25;;;7.20;90.70;;;;;;5034794;28;20445;-85
2021/11/26 08:16:03;;;;;;;5.55;1.35;;;7.20;90.70;;;;;;5033106;28;20385;-85
2021/11/26 08:18:29;;;;;;;1.85;0.90;;;7.20;90.70;;;;;;5018841;28;20507;-85
2021/11/26 08:20:55;;;;;;;2.83;1.20;;;7.20;90.70;;;;;;5026667;28;20032;-83
2021/11/26 08:23:20;;;;;;;1.33;0.80;;;7.20;90.70;;;;;;5030815;28;20037;-87
2021/11/26 08:25:46;;;;;;;3.03;0.85;;;7.20;90.80;;;;;;5034730;28;20029;-84
2021/11/26 08:28:12;;;;;;;2.70;1.38;;;7.20;91.00;;;;;;5032520;28;20148;-85
2021/11/26 08:30:37;;;;;;;0.90;0.85;;;7.20;90.90;;;;;;5033482;28;20606;-85
2021/11/26 08:33:03;;;;;;;2.20;0.75;;;7.20;90.90;;;;;;5021314;28;20030;-85
2021/11/26 08:35:29;;;;;;;3.00;1.45;;;7.10;90.90;;;;;;5032239;28;20040;-85
2021/11/26 08:37:55;;;;;;;1.65;0.85;;;7.10;90.90;;;;;;5032585;28;20038;-85
2021/11/26 08:40:21;;;;;;;3.58;1.13;;;7.20;91.00;;;;;;5019781;28;20026;-83
2021/11/26 08:42:47;;;;;;;7.25;1.83;;;7.10;91.00;;;;;;5033793;28;20206;-84
2021/11/26 08:45:13;;;;;;;3.78;1.10;;;7.10;91.00;;;;;;5021700;28;20033;-85
2021/11/26 08:47:43;;;;;;;5.22;1.75;;;7.20;91.10;;;;;;5031238;28;20029;-84
2021/11/26 08:50:11;;;;;;;8.77;1.83;;;7.20;91.10;;;;;;5033071;28;20377;-85
2021/11/26 08:52:37;;;;;;;1.42;0.85;;;7.20;91.10;;;;;;5032361;28;20033;-85
2021/11/26 08:55:06;;;;;;;1.92;0.95;;;7.20;91.10;;;;;;5033817;28;20037;-86
2021/11/26 08:57:31;;;;;;;1.05;0.98;;;7.20;91.00;;;;;;5031008;28;20034;-78
2021/11/26 08:59:57;;;;;;;4.65;1.33;;;7.20;91.00;;;;;;5028759;28;20076;-83
2021/11/26 09:02:23;;;;;;;0.60;0.60;;;7.20;91.00;;;;;;5034315;28;20038;-84
2021/11/26 09:04:48;;;;;;;0.63;0.60;;;7.20;91.00;;;;;;5033092;28;20385;-84
2021/11/26 09:07:14;;;;;;;0.93;0.82;;;7.20;91.00;;;;;;5024842;28;20087;-85
2021/11/26 09:09:39;;;;;;;1.75;1.30;;;7.20;91.00;;;;;;5031733;28;20026;-84
2021/11/26 09:12:06;;;;;;;7.32;1.42;;;7.20;91.00;;;;;;5032940;28;20039;-85
2021/11/26 09:14:32;;;;;;;2.70;0.98;;;7.20;91.10;;;;;;5024781;28;20033;-84
2021/11/26 09:16:58;;;;;;;8.68;1.30;;;7.20;91.00;;;;;;5032850;28;20385;-86
2021/11/26 09:19:24;;;;;;;0.75;0.75;;;7.20;91.10;;;;;;5030771;28;20033;-84
2021/11/26 09:21:49;;;;;;;1.27;0.85;;;7.30;91.10;;;;;;5028380;28;20029;-85
2021/11/26 09:24:15;;;;;;;4.22;0.85;;;7.20;91.10;;;;;;5031725;28;20038;-85
2021/11/26 09:26:41;;;;;;;7.50;1.60;;;7.30;91.10;;;;;;5027794;28;20033;-84
2021/11/26 09:29:07;;;;;;;1.23;0.63;;;7.30;91.10;;;;;;5016480;28;20041;-87
2021/11/26 09:31:33;;;;;;;2.13;1.15;;;7.30;91.10;;;;;;5025035;28;20030;-87
2021/11/26 09:34:02;;;;;;;1.60;1.27;;;7.20;91.10;;;;;;5027568;28;20065;-82
2021/11/26 09:36:28;;;;;;;0.80;0.73;;;7.20;91.10;;;;;;5031644;28;20408;-83
2021/11/26 09:38:54;;;;;;;1.50;0.80;;;7.30;91.10;;;;;;5024003;28;20041;-82
2021/11/26 09:41:20;;;;;;;2.47;1.50;;;7.30;91.20;;;;;;5030564;28;20477;-81
2021/11/26 09:43:48;;;;;;;2.38;1.23;;;7.20;91.10;;;;;;5021071;28;20041;-83
2021/11/26 09:46:18;;;;;;;1.00;1.00;;;7.30;91.20;;;;;;5022523;28;20022;-82
2021/11/26 09:48:44;;;;;;;1.15;1.05;;;7.20;91.10;;;;;;5024982;28;20527;-76
2021/11/26 09:51:11;;;;;;;5.70;1.95;;;7.30;91.20;;;;;;5029637;28;20061;-75
2021/11/26 09:53:40;;;;;;;0.70;0.60;;;7.30;91.20;;;;;;5026443;28;20045;-74
2021/11/26 09:56:10;;;;;;;1.35;0.65;;;7.30;91.20;;;;;;5030202;28;20033;-86
2021/11/26 09:58:36;;;;;;;0.60;0.60;;;7.30;91.10;;;;;;5026511;28;20033;-81
2021/11/26 10:01:05;;;;;;;2.03;1.27;;;7.30;91.10;;;;;;5024220;28;20064;-81
2021/11/26 10:03:44;;;;;;;4.43;1.52;;;7.30;91.10;;;;;;5030039;28;20103;-81
2021/11/26 10:06:40;;;;;;;5.55;2.00;;;7.30;91.20;;;;;;5030356;28;20029;-81
2021/11/26 10:09:23;;;;;;;9.43;2.15;;;7.30;91.10;;;;;;5018164;28;20026;-81
2021/11/26 10:11:56;;;;;;;12.68;1.70;;;7.40;91.20;;;;;;5025541;28;20440;-81
2021/11/26 10:14:31;;;;;;;1.92;0.63;;;7.30;91.10;;;;;;5029558;28;20473;-82
2021/11/26 10:17:13;;;;;;;3.45;1.42;;;7.30;91.20;;;;;;5024326;28;20037;-81
2021/11/26 10:20:00;;;;;;;9.20;1.08;;;7.30;91.20;;;;;;5027298;28;20661;-81
2021/11/26 10:22:33;;;;;;;3.13;1.13;;;7.30;91.20;;;;;;5029431;28;20148;-81
2021/11/26 10:25:20;;;;;;;1.70;0.87;;;7.30;91.20;;;;;;5031548;28;20132;-81
2021/11/26 10:28:02;;;;;;;1.17;0.88;;;7.30;91.20;;;;;;5022710;28;20026;-81
2021/11/26 10:30:46;;;;;;;4.05;1.30;;;7.30;91.30;;;;;;5018677;28;20057;-81
2021/11/26 10:33:22;;;;;;;3.25;1.10;;;7.30;91.30;;;;;;5029570;28;20088;-82
2021/11/26 10:35:54;;;;;;;2.22;1.25;;;7.30;91.30;;;;;;5029143;28;20362;-82
2021/11/26 10:38:26;;;;;;;1.67;1.10;;;7.30;91.30;;;;;;5031046;28;20037;-81
2021/11/26 10:41:03;;;;;;;2.47;1.00;;;7.30;91.30;;;;;;5016906;28;20052;-81
2021/11/26 10:43:55;;;;;;;4.93;2.47;;;7.40;91.40;;;;;;5031860;28;20052;-82
2021/11/26 10:49:04;;;;;;;1.27;0.65;;;7.40;91.30;;;;;;5031112;28;20124;-82
2021/11/26 10:51:53;;;;;;;1.27;0.85;;;7.30;91.30;;;;;;5019845;28;20174;-81
2021/11/26 10:59:47;;;;;;;1.85;1.13;;;7.30;91.50;;;;;;5031210;28;20060;-81
2021/11/26 11:02:28;;;;;;;1.25;1.05;;;7.30;91.50;;;;;;5032962;28;20037;-78
2021/11/26 11:04:54;;;;;;;1.42;1.02;;;7.40;91.60;;;;;;5030009;28;20025;-80
2021/11/26 11:07:20;;;;;;;4.28;1.25;;;7.30;91.60;;;;;;5029320;28;20041;-83
2021/11/26 11:09:50;;;;;;;5.85;1.65;;;7.40;91.60;;;;;;5028843;28;20022;-72
2021/11/26 11:12:16;;;;;;;3.58;1.50;;;7.40;91.70;;;;;;5028998;28;20474;-79
2021/11/26 11:14:57;;;;;;;6.20;1.60;;;7.40;91.60;;;;;;5019062;28;20038;-80
2021/11/26 11:17:27;;;;;;;5.05;1.77;;;7.40;91.70;;;;;;5016068;28;20462;-81
2021/11/26 11:20:05;;;;;;;4.75;2.03;;;7.40;91.70;;;;;;5028926;28;20155;-79
2021/11/26 11:22:32;;;;;;;5.35;1.60;;;7.50;91.70;;;;;;5024031;28;20044;-80
2021/11/26 11:24:58;;;;;;;7.50;1.70;;;7.50;91.70;;;;;;5032570;28;20033;-80
2021/11/26 11:27:24;;;;;;;7.32;1.98;;;7.50;91.60;;;;;;5023862;28;20028;-81
2021/11/26 11:29:58;;;;;;;8.35;2.10;;;7.50;91.60;;;;;;5031645;28;20025;-82
2021/11/26 11:32:26;;;;;;;4.78;1.83;;;7.60;91.60;;;;;;5032828;28;20045;-84
2021/11/26 11:35:11;;;;;;;1.33;1.00;;;7.60;91.60;;;;;;5031530;28;20384;-79
2021/11/26 11:37:38;;;;;;;2.65;1.00;;;7.60;91.60;;;;;;5031916;28;20025;-79
2021/11/26 11:40:09;;;;;;;12.68;2.42;;;7.60;91.70;;;;;;5030800;28;20033;-79
2021/11/26 11:42:42;;;;;;;6.63;1.95;;;7.60;91.70;;;;;;5032543;28;20051;-79
2021/11/26 11:45:10;;;;;;;4.65;1.45;;;7.60;91.70;;;;;;5033372;28;20033;-70
2021/11/26 11:47:45;;;;;;;2.85;1.33;;;7.70;91.70;;;;;;5025805;28;20028;-81
2021/11/26 11:50:17;;;;;;;1.10;1.00;;;7.70;91.70;;;;;;5030499;28;20036;-79
2021/11/26 11:52:51;;;;;;;2.28;1.00;;;7.70;91.60;;;;;;5029716;28;20393;-82
2021/11/26 11:55:26;;;;;;;4.75;1.30;;;7.80;91.60;;;;;;5025419;28;20473;-80
2021/11/26 11:57:57;;;;;;;8.80;2.70;;;7.80;91.60;;;;;;5027587;28;20024;-80
2021/11/26 12:00:27;;;;;;;3.50;1.45;;;7.80;91.60;;;;;;5032249;28;20389;-81
2021/11/26 12:03:07;;;;;;;5.38;2.35;;;7.80;91.60;;;;;;5030102;28;20397;-81
2021/11/26 12:05:34;;;;;;;2.70;1.58;;;7.80;91.50;;;;;;5032663;28;20036;-83
2021/11/26 12:08:14;;;;;;;14.15;1.95;;;7.80;91.50;;;;;;5028251;28;20061;-73
2021/11/26 12:10:56;;;;;;;4.00;1.20;;;7.90;91.60;;;;;;5030434;28;20030;-74
2021/11/26 12:13:27;;;;;;;3.72;2.45;;;7.90;91.60;;;;;;5030741;28;20481;-74
2021/11/26 12:16:16;;;;;;;7.03;1.83;;;7.90;91.60;;;;;;5031466;28;20539;-78
2021/11/26 12:18:52;;;;;;;4.10;1.60;;;7.90;91.50;;;;;;5032254;28;20436;-78
2021/11/26 12:21:22;;;;;;;3.53;1.52;;;7.90;91.60;;;;;;5030007;28;20636;-80
2021/11/26 12:24:16;;;;;;;5.45;1.65;;;7.90;91.60;;;;;;5028657;28;20056;-76
2021/11/26 12:26:54;;;;;;;6.20;2.00;;;7.90;91.50;;;;;;5030455;28;20041;-75
2021/11/26 12:29:29;;;;;;;7.75;2.28;;;8.00;91.60;;;;;;5030731;28;20037;-77
2021/11/26 12:32:08;;;;;;;5.22;1.85;;;7.90;91.50;;;;;;5025651;28;20120;-79
2021/11/26 12:34:40;;;;;;;10.82;2.13;;;7.90;91.50;;;;;;5023079;28;20117;-81
2021/11/26 12:37:25;;;;;;;6.28;2.10;;;8.00;91.50;;;;;;5025851;28;20045;-78
2021/11/26 12:39:54;;;;;;;6.43;2.47;;;7.90;91.50;;;;;;5027434;28;20040;-78
2021/11/26 12:42:20;;;;;;;4.03;1.90;;;7.90;91.40;;;;;;5025095;28;20447;-78
2021/11/26 12:45:05;;;;;;;8.48;1.88;;;7.90;91.40;;;;;;5027162;28;20049;-78
2021/11/26 12:48:06;;;;;;;5.75;2.20;;;7.90;91.50;;;;;;5026945;28;20384;-77
2021/11/26 12:53:22;;;;;;;2.72;1.75;;;7.90;91.40;;;;;;5022981;28;20025;-80
2021/11/26 12:55:53;;;;;;;5.32;1.60;;;8.00;91.50;;;;;;5025478;28;20038;-79
2021/11/26 12:58:20;;;;;;;16.17;3.30;;;8.00;91.50;;;;;;5031575;28;20033;-77
2021/11/26 13:00:57;;;;;;;9.15;2.58;;;8.10;91.40;;;;;;5030626;28;20091;-78
2021/11/26 13:03:24;;;;;;;6.45;2.58;;;8.10;91.30;;;;;;5024465;28;20049;-82
2021/11/26 13:05:55;;;;;;;17.38;3.70;;;8.10;91.30;;;;;;5029872;28;20036;-80
2021/11/26 13:08:21;;;;;;;8.18;2.40;;;8.10;91.20;;;;;;5025530;28;20034;-81
2021/11/26 13:10:47;;;;;;;3.75;2.17;;;8.20;91.20;;;;;;5025476;28;20389;-81
2021/11/26 13:13:13;;;;;;;8.40;2.45;;;8.10;91.20;;;;;;5013285;28;20470;-80
2021/11/26 13:15:39;;;;;;;7.72;2.40;;;8.20;91.20;;;;;;5026100;28;20125;-81